Time;durP1;ratioP1;P1;durP2;ratioP2;P2;SDS_P1;SDS_P2;PMS_P1;PMS_P2;Temp;Humidity;BMP_temperature;BMP_pressure;BME280_temperature;BME280_humidity;BME280_pressure;Samples;Min_cycle;Max_cycle;Signal;HPM_P1;HPM_P2
2023/09/27 00:01:09;;;;;;;4.85;3.50;;;19.50;69.80;;;;;;4998694;28;20030;-78
2023/09/27 00:03:35;;;;;;;4.85;3.78;;;19.50;69.80;;;;;;5013844;28;20054;-78
2023/09/27 00:06:01;;;;;;;4.80;3.70;;;19.50;69.80;;;;;;5015504;28;20034;-77
2023/09/27 00:08:26;;;;;;;4.80;3.28;;;19.50;69.80;;;;;;5014165;28;20034;-79
2023/09/27 00:10:52;;;;;;;6.07;4.05;;;19.50;69.90;;;;;;4981742;28;20037;-78
2023/09/27 00:13:18;;;;;;;5.03;3.70;;;19.50;69.90;;;;;;4997969;28;20574;-78
2023/09/27 00:15:43;;;;;;;4.85;3.65;;;19.50;69.90;;;;;;4997585;28;20038;-77
2023/09/27 00:18:10;;;;;;;5.15;3.90;;;19.50;70.00;;;;;;5015805;28;20052;-78
2023/09/27 00:20:36;;;;;;;5.05;3.63;;;19.40;69.90;;;;;;5013862;28;20036;-78
2023/09/27 00:23:01;;;;;;;4.82;3.58;;;19.40;69.90;;;;;;5014041;28;20034;-78
2023/09/27 00:25:27;;;;;;;4.55;3.35;;;19.40;69.90;;;;;;4981616;28;20053;-78
2023/09/27 00:27:53;;;;;;;4.70;3.55;;;19.40;70.00;;;;;;4997617;28;20056;-78
2023/09/27 00:30:19;;;;;;;4.97;3.58;;;19.40;70.00;;;;;;4997540;28;20125;-78
2023/09/27 00:32:46;;;;;;;4.85;3.50;;;19.40;70.00;;;;;;4981263;28;20038;-77
2023/09/27 00:35:22;;;;;;;4.90;3.53;;;19.40;70.00;;;;;;4997620;28;20092;-78
2023/09/27 00:37:49;;;;;;;5.55;3.38;;;19.40;70.00;;;;;;4998560;28;20026;-78
2023/09/27 00:40:18;;;;;;;5.43;3.88;;;19.40;70.00;;;;;;4997389;28;20117;-78
2023/09/27 00:42:44;;;;;;;5.32;3.72;;;19.30;70.00;;;;;;4997161;28;20470;-77
2023/09/27 00:45:10;;;;;;;4.68;3.50;;;19.30;70.00;;;;;;4997243;28;20030;-77
2023/09/27 00:47:37;;;;;;;5.10;3.42;;;19.30;70.00;;;;;;4997197;28;20092;-78
2023/09/27 00:50:03;;;;;;;4.75;3.45;;;19.30;70.10;;;;;;4997170;28;20034;-78
2023/09/27 00:52:30;;;;;;;5.50;3.88;;;19.30;70.20;;;;;;4997511;28;20037;-78
2023/09/27 00:54:57;;;;;;;4.70;3.20;;;19.30;70.20;;;;;;4997442;28;20062;-78
2023/09/27 00:57:23;;;;;;;4.55;3.20;;;19.30;70.20;;;;;;4997396;28;20030;-77
2023/09/27 00:59:49;;;;;;;4.50;3.30;;;19.20;70.30;;;;;;4997191;28;20085;-78
2023/09/27 01:02:16;;;;;;;4.72;3.38;;;19.20;70.30;;;;;;4981237;28;20030;-78
2023/09/27 01:04:43;;;;;;;4.93;3.83;;;19.20;70.30;;;;;;5013043;28;20062;-78
2023/09/27 01:07:09;;;;;;;4.47;3.47;;;19.20;70.30;;;;;;5014649;28;20034;-78
2023/09/27 01:09:37;;;;;;;5.10;3.72;;;19.20;70.30;;;;;;4981090;28;20034;-78
2023/09/27 01:12:03;;;;;;;5.20;3.60;;;19.20;70.30;;;;;;5013532;28;20056;-77
2023/09/27 01:14:30;;;;;;;4.18;3.42;;;19.20;70.30;;;;;;5014577;28;20148;-78
2023/09/27 01:17:11;;;;;;;4.70;3.45;;;19.20;70.30;;;;;;4997840;28;20026;-78
2023/09/27 01:19:38;;;;;;;4.60;3.20;;;19.20;70.40;;;;;;5014235;28;20033;-78
2023/09/27 01:22:04;;;;;;;5.32;3.55;;;19.20;70.40;;;;;;4981001;28;20034;-78
2023/09/27 01:24:32;;;;;;;4.57;3.22;;;19.10;70.30;;;;;;4996487;28;20092;-78
2023/09/27 01:27:00;;;;;;;4.55;3.22;;;19.10;70.30;;;;;;5012618;28;20030;-78
2023/09/27 01:29:26;;;;;;;4.45;3.03;;;19.10;70.30;;;;;;4980078;28;20037;-77
2023/09/27 01:31:51;;;;;;;4.57;3.17;;;19.10;70.40;;;;;;4980285;28;20108;-78
2023/09/27 01:34:17;;;;;;;5.15;3.58;;;19.10;70.40;;;;;;4996337;28;20072;-77
2023/09/27 01:36:43;;;;;;;4.30;3.28;;;19.10;70.40;;;;;;5012729;28;20038;-78
2023/09/27 01:39:08;;;;;;;4.88;3.47;;;19.00;70.40;;;;;;4995981;28;20473;-78
2023/09/27 01:41:34;;;;;;;4.57;3.28;;;19.10;70.50;;;;;;5012620;28;20037;-78
2023/09/27 01:44:00;;;;;;;4.20;3.03;;;19.00;70.40;;;;;;4996593;28;20037;-77
2023/09/27 01:46:25;;;;;;;4.13;3.22;;;19.00;70.50;;;;;;4996197;28;20063;-78
2023/09/27 01:48:51;;;;;;;4.53;3.30;;;19.00;70.50;;;;;;4980344;28;20044;-78
2023/09/27 01:51:17;;;;;;;5.25;3.15;;;19.00;70.50;;;;;;4996266;28;20437;-77
2023/09/27 01:53:42;;;;;;;5.60;3.63;;;19.00;70.60;;;;;;4996426;28;20033;-78
2023/09/27 01:56:08;;;;;;;4.63;3.50;;;18.90;70.50;;;;;;5014475;28;20030;-77
2023/09/27 01:58:34;;;;;;;5.13;3.40;;;18.90;70.50;;;;;;4979971;28;20038;-77
2023/09/27 02:01:00;;;;;;;5.40;3.45;;;18.90;70.60;;;;;;4980013;28;20472;-78
2023/09/27 02:03:25;;;;;;;4.72;3.50;;;18.90;70.60;;;;;;4995829;28;20054;-78
2023/09/27 02:05:52;;;;;;;4.07;3.38;;;18.80;70.60;;;;;;4995678;28;20045;-77
2023/09/27 02:08:18;;;;;;;5.20;4.03;;;18.80;70.60;;;;;;4979625;28;20038;-78
2023/09/27 02:10:44;;;;;;;5.28;3.50;;;18.80;70.60;;;;;;5012858;28;20037;-78
2023/09/27 02:13:09;;;;;;;4.70;3.45;;;18.80;70.60;;;;;;4986180;28;20029;-78
2023/09/27 02:15:35;;;;;;;5.03;3.38;;;18.80;70.70;;;;;;5020381;28;20042;-78
2023/09/27 02:18:01;;;;;;;4.25;3.15;;;18.80;70.80;;;;;;5002659;28;20041;-77
2023/09/27 02:20:27;;;;;;;4.78;3.45;;;18.70;70.80;;;;;;5002989;28;20033;-78
2023/09/27 02:22:54;;;;;;;4.20;3.28;;;18.70;70.90;;;;;;5002720;28;20060;-78
2023/09/27 02:25:20;;;;;;;3.92;3.05;;;18.70;70.80;;;;;;5002407;28;20046;-77
2023/09/27 02:27:46;;;;;;;4.70;3.75;;;18.70;70.80;;;;;;4986073;28;20368;-77
2023/09/27 02:30:12;;;;;;;4.38;3.25;;;18.70;70.80;;;;;;5002154;28;20449;-78
2023/09/27 02:32:42;;;;;;;5.07;3.58;;;18.70;70.90;;;;;;4985913;28;20118;-78
2023/09/27 02:35:09;;;;;;;5.63;3.80;;;18.70;70.90;;;;;;5018820;28;20049;-77
2023/09/27 02:37:39;;;;;;;5.03;3.47;;;18.60;70.80;;;;;;5002344;28;20088;-78
2023/09/27 02:40:11;;;;;;;5.50;3.78;;;18.60;70.80;;;;;;4985945;28;20034;-77
2023/09/27 02:42:42;;;;;;;4.53;3.38;;;18.60;70.90;;;;;;5002313;28;20030;-77
2023/09/27 02:45:09;;;;;;;4.82;3.58;;;18.50;70.90;;;;;;5018166;28;20044;-78
2023/09/27 02:47:35;;;;;;;5.78;3.72;;;18.50;71.00;;;;;;5002874;28;20076;-77
2023/09/27 02:50:04;;;;;;;4.88;3.58;;;18.50;71.00;;;;;;5018199;28;20034;-77
2023/09/27 02:52:31;;;;;;;4.82;3.80;;;18.50;71.00;;;;;;5002657;28;20033;-78
2023/09/27 02:54:58;;;;;;;4.82;3.60;;;18.50;71.00;;;;;;4986162;28;20100;-77
2023/09/27 02:57:24;;;;;;;5.30;3.63;;;18.50;71.00;;;;;;5002150;28;20077;-77
2023/09/27 02:59:50;;;;;;;5.00;3.60;;;18.40;71.00;;;;;;5001977;28;20033;-77
2023/09/27 03:02:16;;;;;;;5.10;3.53;;;18.40;71.00;;;;;;4986411;28;20030;-77
2023/09/27 03:04:42;;;;;;;5.45;3.50;;;18.40;71.10;;;;;;5002081;28;20133;-78
2023/09/27 03:07:11;;;;;;;5.35;3.80;;;18.40;71.10;;;;;;5018766;28;20133;-77
2023/09/27 03:09:37;;;;;;;4.75;3.65;;;18.40;71.10;;;;;;4970607;28;20484;-77
2023/09/27 03:12:03;;;;;;;4.72;3.53;;;18.40;71.10;;;;;;4985890;28;20089;-77
2023/09/27 03:14:29;;;;;;;4.93;3.75;;;18.30;71.10;;;;;;5002178;28;20034;-77
2023/09/27 03:16:55;;;;;;;4.97;4.03;;;18.30;71.10;;;;;;5019706;28;20092;-78
2023/09/27 03:19:24;;;;;;;4.72;3.47;;;18.30;71.10;;;;;;5002778;28;20423;-77
2023/09/27 03:21:49;;;;;;;5.55;4.10;;;18.30;71.10;;;;;;5001779;28;20040;-77
2023/09/27 03:24:15;;;;;;;4.90;3.90;;;18.30;71.10;;;;;;5014326;28;20116;-78
2023/09/27 03:26:41;;;;;;;5.28;3.92;;;18.20;71.20;;;;;;5015137;28;20088;-77
2023/09/27 03:29:06;;;;;;;4.63;3.35;;;18.20;71.20;;;;;;4999275;28;20447;-78
2023/09/27 03:31:32;;;;;;;5.20;4.20;;;18.20;71.20;;;;;;4998809;28;20084;-77
2023/09/27 03:33:58;;;;;;;5.13;4.00;;;18.20;71.30;;;;;;4998720;28;20034;-78
2023/09/27 03:36:24;;;;;;;4.95;3.95;;;18.20;71.30;;;;;;4999098;28;20041;-78
2023/09/27 03:38:50;;;;;;;5.18;3.90;;;18.20;71.30;;;;;;4998404;28;20550;-77
2023/09/27 03:41:16;;;;;;;5.03;3.70;;;18.20;71.30;;;;;;4982373;28;20026;-77
2023/09/27 03:43:41;;;;;;;4.35;3.63;;;18.10;71.30;;;;;;5014673;28;20168;-78
2023/09/27 03:46:07;;;;;;;4.78;3.60;;;18.10;71.20;;;;;;5014618;28;20046;-78
2023/09/27 03:48:34;;;;;;;5.15;3.90;;;18.10;71.30;;;;;;4982365;28;20045;-77
2023/09/27 03:51:00;;;;;;;4.80;4.00;;;18.00;71.30;;;;;;4998454;28;20030;-77
2023/09/27 03:53:28;;;;;;;4.93;3.78;;;18.10;71.30;;;;;;4998737;28;20037;-78
2023/09/27 03:55:53;;;;;;;5.28;4.35;;;18.10;71.40;;;;;;5016495;28;20053;-77
2023/09/27 03:58:20;;;;;;;6.25;4.25;;;18.00;71.30;;;;;;5014353;28;20112;-77
2023/09/27 04:00:46;;;;;;;5.25;3.88;;;18.00;71.40;;;;;;5015697;28;20458;-77
2023/09/27 04:03:11;;;;;;;4.60;3.80;;;18.00;71.40;;;;;;5014906;28;20141;-78
2023/09/27 04:05:37;;;;;;;4.97;3.83;;;18.00;71.40;;;;;;4981776;28;20479;-78
2023/09/27 04:08:03;;;;;;;4.57;3.38;;;18.00;71.50;;;;;;5014336;28;20037;-78
2023/09/27 04:10:29;;;;;;;4.25;3.45;;;17.90;71.50;;;;;;5014303;28;20033;-78
2023/09/27 04:12:55;;;;;;;4.53;3.83;;;17.90;71.50;;;;;;4997859;28;20398;-77
2023/09/27 04:15:21;;;;;;;4.60;3.60;;;17.90;71.50;;;;;;5015410;28;20049;-77
2023/09/27 04:17:47;;;;;;;5.10;4.03;;;17.90;71.50;;;;;;4981333;28;20034;-78
2023/09/27 04:20:19;;;;;;;5.35;3.85;;;17.90;71.50;;;;;;4965444;28;20038;-78
2023/09/27 04:22:48;;;;;;;5.00;4.03;;;17.90;71.60;;;;;;5015680;28;20077;-77
2023/09/27 04:25:15;;;;;;;4.43;3.65;;;17.90;71.60;;;;;;4997527;28;20034;-77
2023/09/27 04:27:49;;;;;;;6.13;4.13;;;17.80;71.50;;;;;;4982337;28;20038;-77
2023/09/27 04:30:19;;;;;;;4.78;3.85;;;17.80;71.60;;;;;;4998713;28;20026;-77
2023/09/27 04:32:46;;;;;;;6.20;4.18;;;17.80;71.50;;;;;;5014716;28;20148;-78
2023/09/27 04:35:15;;;;;;;5.50;4.07;;;17.80;71.60;;;;;;5014429;28;20033;-77
2023/09/27 04:37:41;;;;;;;4.35;3.53;;;17.80;71.60;;;;;;5013456;28;20498;-77
2023/09/27 04:40:14;;;;;;;5.32;3.90;;;17.80;71.60;;;;;;5014881;28;20081;-77
2023/09/27 04:42:44;;;;;;;5.03;4.20;;;17.80;71.60;;;;;;4998145;28;20168;-87
2023/09/27 04:45:13;;;;;;;5.00;3.85;;;17.80;71.70;;;;;;4997182;28;20061;-77
2023/09/27 04:47:40;;;;;;;4.75;3.60;;;17.70;71.60;;;;;;5013388;28;20080;-77
2023/09/27 04:50:10;;;;;;;4.93;3.67;;;17.70;71.60;;;;;;5013415;28;20022;-82
2023/09/27 04:52:37;;;;;;;5.35;3.60;;;17.70;71.60;;;;;;4997902;28;20030;-78
2023/09/27 04:55:04;;;;;;;4.95;3.78;;;17.60;71.60;;;;;;4997219;28;20061;-78
2023/09/27 04:57:29;;;;;;;5.88;4.10;;;17.70;71.70;;;;;;5013690;28;20037;-78
2023/09/27 04:59:55;;;;;;;5.20;3.88;;;17.70;71.70;;;;;;4964700;28;20034;-78
2023/09/27 05:02:21;;;;;;;5.15;3.95;;;17.60;71.60;;;;;;4980905;28;20053;-78
2023/09/27 05:04:47;;;;;;;4.97;3.63;;;17.60;71.70;;;;;;5009768;28;20058;-77
2023/09/27 05:07:19;;;;;;;4.43;3.78;;;17.60;71.70;;;;;;4995011;28;20038;-77
2023/09/27 05:09:46;;;;;;;5.32;3.88;;;17.60;71.70;;;;;;4994972;28;20057;-78
2023/09/27 05:12:13;;;;;;;5.22;3.78;;;17.60;71.70;;;;;;5009863;28;20037;-78
2023/09/27 05:14:39;;;;;;;5.22;3.92;;;17.60;71.70;;;;;;4977078;28;20471;-77
2023/09/27 05:17:05;;;;;;;4.93;3.97;;;17.60;71.80;;;;;;4994387;28;20026;-77
2023/09/27 05:19:31;;;;;;;5.55;3.97;;;17.50;71.70;;;;;;5009483;28;20077;-76
2023/09/27 05:21:58;;;;;;;5.22;4.10;;;17.50;71.70;;;;;;5009681;28;20045;-78
2023/09/27 05:24:24;;;;;;;5.80;4.18;;;17.50;71.80;;;;;;5009425;28;20085;-77
2023/09/27 05:26:50;;;;;;;5.13;3.75;;;17.50;71.80;;;;;;4994342;28;20034;-77
2023/09/27 05:29:15;;;;;;;5.05;4.00;;;17.50;71.80;;;;;;5009830;28;20030;-77
2023/09/27 05:31:43;;;;;;;5.50;4.15;;;17.50;71.90;;;;;;5009661;28;20026;-82
2023/09/27 05:34:08;;;;;;;4.80;4.03;;;17.50;71.90;;;;;;4977378;28;20042;-78
2023/09/27 05:36:35;;;;;;;5.43;4.40;;;17.50;72.00;;;;;;4992781;28;20387;-78
2023/09/27 05:39:02;;;;;;;5.00;4.32;;;17.50;72.00;;;;;;5009283;28;20475;-78
2023/09/27 05:41:28;;;;;;;4.82;3.70;;;17.40;71.90;;;;;;5009299;28;20038;-77
2023/09/27 05:43:54;;;;;;;5.22;3.97;;;17.40;71.90;;;;;;5009971;28;20038;-77
2023/09/27 05:46:19;;;;;;;4.57;3.65;;;17.40;71.90;;;;;;4976165;28;20046;-77
2023/09/27 05:48:45;;;;;;;5.53;4.28;;;17.40;71.90;;;;;;5009472;28;20042;-77
2023/09/27 05:51:11;;;;;;;5.40;4.25;;;17.40;71.90;;;;;;4992857;28;20069;-77
2023/09/27 05:53:37;;;;;;;5.18;3.97;;;17.40;72.00;;;;;;4995987;28;20026;-78
2023/09/27 05:56:03;;;;;;;5.18;4.07;;;17.40;72.00;;;;;;4992689;28;20042;-78
2023/09/27 05:58:34;;;;;;;5.68;4.25;;;17.40;72.00;;;;;;4993093;28;20040;-80
2023/09/27 06:01:02;;;;;;;5.65;4.25;;;17.30;72.00;;;;;;4994102;28;20034;-78
2023/09/27 06:03:31;;;;;;;5.05;4.03;;;17.30;72.00;;;;;;4995576;28;20030;-77
2023/09/27 06:05:58;;;;;;;5.22;4.20;;;17.30;72.00;;;;;;4996600;28;20116;-78
2023/09/27 06:08:24;;;;;;;4.88;3.97;;;17.30;72.00;;;;;;4979929;28;20080;-77
2023/09/27 06:10:50;;;;;;;5.65;4.32;;;17.30;72.00;;;;;;4996123;28;20498;-79
2023/09/27 06:13:16;;;;;;;5.00;4.00;;;17.30;72.00;;;;;;5012092;28;20030;-77
2023/09/27 06:15:42;;;;;;;5.15;4.00;;;17.30;72.00;;;;;;5013417;28;20034;-77
2023/09/27 06:18:08;;;;;;;4.65;3.78;;;17.30;72.00;;;;;;5012621;28;20379;-77
2023/09/27 06:20:33;;;;;;;5.97;4.22;;;17.30;72.00;;;;;;4948110;28;20034;-77
2023/09/27 06:23:03;;;;;;;4.85;3.97;;;17.30;72.10;;;;;;5012749;28;20056;-77
2023/09/27 06:25:30;;;;;;;4.82;3.70;;;17.30;72.10;;;;;;4996931;28;20029;-77
2023/09/27 06:27:57;;;;;;;5.13;4.30;;;17.30;72.10;;;;;;4997078;28;20140;-77
2023/09/27 06:30:23;;;;;;;5.28;4.05;;;17.30;72.10;;;;;;4996229;28;20109;-77
2023/09/27 06:32:49;;;;;;;4.80;4.07;;;17.30;72.10;;;;;;4996625;28;20034;-78
2023/09/27 06:35:15;;;;;;;6.15;4.57;;;17.30;72.20;;;;;;4996385;28;20430;-77
2023/09/27 06:37:43;;;;;;;5.82;4.30;;;17.30;72.20;;;;;;4995779;28;20124;-77
2023/09/27 06:40:16;;;;;;;5.40;4.00;;;17.30;72.20;;;;;;4996213;28;20036;-77
2023/09/27 06:42:44;;;;;;;5.38;4.20;;;17.30;72.20;;;;;;4997109;28;20037;-77
2023/09/27 06:45:10;;;;;;;5.10;4.05;;;17.30;72.20;;;;;;4995953;28;20026;-77
2023/09/27 06:47:38;;;;;;;5.07;3.97;;;17.30;72.30;;;;;;5012974;28;20045;-78
2023/09/27 06:50:04;;;;;;;6.30;4.72;;;17.30;72.30;;;;;;4995763;28;20031;-77
2023/09/27 06:52:30;;;;;;;4.88;4.13;;;17.30;72.30;;;;;;4996651;28;20092;-77
2023/09/27 06:54:57;;;;;;;6.18;4.22;;;17.30;72.30;;;;;;4995889;28;20030;-77
2023/09/27 06:57:23;;;;;;;5.32;4.15;;;17.30;72.30;;;;;;4996437;28;20096;-78
2023/09/27 06:59:49;;;;;;;5.72;4.15;;;17.30;72.30;;;;;;4999711;28;20113;-78
2023/09/27 07:02:16;;;;;;;5.70;4.57;;;17.30;72.40;;;;;;5016762;28;20045;-77
2023/09/27 07:04:42;;;;;;;5.28;4.22;;;17.30;72.30;;;;;;4982751;28;20054;-85
2023/09/27 07:07:09;;;;;;;5.53;4.55;;;17.30;72.40;;;;;;5015729;28;20049;-78
2023/09/27 07:09:34;;;;;;;5.22;3.83;;;17.30;72.40;;;;;;4999547;28;20033;-79
2023/09/27 07:12:01;;;;;;;5.45;4.10;;;17.30;72.40;;;;;;4983134;28;20045;-78
2023/09/27 07:14:27;;;;;;;5.00;4.22;;;17.30;72.40;;;;;;4999140;28;20060;-78
2023/09/27 07:16:52;;;;;;;5.22;4.15;;;17.30;72.40;;;;;;4983207;28;20038;-78
2023/09/27 07:19:18;;;;;;;5.50;4.40;;;17.30;72.40;;;;;;4983086;28;20026;-77
2023/09/27 07:21:44;;;;;;;5.15;4.03;;;17.40;72.40;;;;;;5015307;28;20030;-79
2023/09/27 07:24:10;;;;;;;5.63;4.22;;;17.30;72.30;;;;;;5015642;28;20084;-82
2023/09/27 07:26:37;;;;;;;5.60;4.63;;;17.40;72.40;;;;;;4982713;28;20038;-77
2023/09/27 07:29:03;;;;;;;5.32;4.45;;;17.40;72.40;;;;;;4998843;28;20441;-78
2023/09/27 07:31:29;;;;;;;5.22;4.30;;;17.40;72.50;;;;;;5015313;28;20048;-78
2023/09/27 07:33:56;;;;;;;5.25;4.05;;;17.40;72.40;;;;;;4999348;28;20070;-78
2023/09/27 07:36:24;;;;;;;6.03;4.30;;;17.50;72.50;;;;;;4999021;28;20041;-78
2023/09/27 07:38:52;;;;;;;4.78;3.88;;;17.50;72.50;;;;;;5015052;28;20064;-77
2023/09/27 07:41:17;;;;;;;5.00;4.10;;;17.50;72.50;;;;;;4999040;28;20030;-77
2023/09/27 07:43:43;;;;;;;5.45;4.32;;;17.50;72.40;;;;;;5016184;28;20030;-78
2023/09/27 07:46:12;;;;;;;5.22;4.20;;;17.50;72.40;;;;;;4982446;28;20065;-77
2023/09/27 07:48:39;;;;;;;4.63;3.80;;;17.50;72.40;;;;;;5015603;28;20065;-78
2023/09/27 07:51:18;;;;;;;5.10;4.45;;;17.60;72.40;;;;;;5015444;28;20030;-77
2023/09/27 07:53:44;;;;;;;5.15;4.13;;;17.60;72.50;;;;;;4998845;28;20026;-77
2023/09/27 07:56:19;;;;;;;5.40;4.18;;;17.60;72.40;;;;;;5016289;28;20463;-78
2023/09/27 07:58:46;;;;;;;4.88;3.90;;;17.60;72.50;;;;;;5015973;28;20360;-77
2023/09/27 08:01:12;;;;;;;5.00;4.32;;;17.60;72.40;;;;;;4998236;28;20037;-77
2023/09/27 08:03:38;;;;;;;5.07;4.30;;;17.60;72.40;;;;;;4998006;28;20061;-77
2023/09/27 08:06:05;;;;;;;5.75;4.75;;;17.70;72.40;;;;;;5015524;28;20088;-77
2023/09/27 08:08:31;;;;;;;5.25;4.53;;;17.60;72.40;;;;;;4998150;28;20045;-77
2023/09/27 08:10:57;;;;;;;5.60;4.75;;;17.70;72.40;;;;;;5014193;28;20025;-77
2023/09/27 08:13:25;;;;;;;5.32;4.50;;;17.70;72.40;;;;;;4982075;28;20112;-78
2023/09/27 08:15:51;;;;;;;5.18;4.28;;;17.70;72.40;;;;;;5015615;28;20037;-77
2023/09/27 08:18:17;;;;;;;5.60;4.50;;;17.70;72.40;;;;;;4981902;28;20124;-77
2023/09/27 08:20:43;;;;;;;5.32;4.15;;;17.80;72.40;;;;;;5015169;28;20026;-78
2023/09/27 08:23:09;;;;;;;4.60;3.88;;;17.80;72.40;;;;;;5015536;28;20041;-77
2023/09/27 08:25:37;;;;;;;5.13;4.50;;;17.80;72.40;;;;;;4981726;28;20038;-78
2023/09/27 08:28:06;;;;;;;4.60;3.95;;;17.80;72.40;;;;;;4997763;28;20084;-77
2023/09/27 08:30:32;;;;;;;4.80;3.70;;;17.90;72.40;;;;;;4982331;28;20026;-77
2023/09/27 08:32:58;;;;;;;4.65;3.85;;;17.90;72.40;;;;;;4997883;28;20482;-77
2023/09/27 08:35:25;;;;;;;5.05;3.88;;;17.90;72.40;;;;;;5013792;28;20042;-77
2023/09/27 08:37:50;;;;;;;4.60;4.10;;;17.90;72.40;;;;;;4997496;28;20034;-78
2023/09/27 08:40:17;;;;;;;6.38;4.57;;;18.00;72.40;;;;;;5013709;28;20032;-77
2023/09/27 08:42:43;;;;;;;6.28;4.57;;;18.00;72.50;;;;;;4981017;28;20037;-77
2023/09/27 08:45:14;;;;;;;5.45;4.63;;;18.00;72.50;;;;;;5013983;28;20049;-78
2023/09/27 08:47:42;;;;;;;4.93;4.28;;;18.00;72.40;;;;;;5013715;28;20040;-78
2023/09/27 08:50:11;;;;;;;5.32;4.00;;;18.10;72.40;;;;;;5015294;28;20364;-78
2023/09/27 08:52:38;;;;;;;5.15;4.20;;;18.10;72.30;;;;;;5015171;28;20092;-76
2023/09/27 08:55:06;;;;;;;5.03;4.53;;;18.20;72.30;;;;;;4981368;28;20057;-78
2023/09/27 08:57:35;;;;;;;5.50;4.45;;;18.20;72.20;;;;;;4997720;28;20046;-77
2023/09/27 09:00:00;;;;;;;5.90;4.75;;;18.20;72.10;;;;;;5013407;28;20033;-78
2023/09/27 09:02:27;;;;;;;6.53;4.88;;;18.30;72.10;;;;;;4997491;28;20443;-77
2023/09/27 09:04:52;;;;;;;5.25;4.30;;;18.30;72.00;;;;;;5013750;28;20079;-77
2023/09/27 09:07:18;;;;;;;6.25;4.70;;;18.30;72.00;;;;;;5015265;28;20038;-77
2023/09/27 09:09:46;;;;;;;5.68;4.70;;;18.40;71.90;;;;;;5014261;28;20046;-78
2023/09/27 09:12:12;;;;;;;6.45;4.43;;;18.50;71.90;;;;;;5013728;28;20037;-77
2023/09/27 09:14:44;;;;;;;5.45;4.78;;;18.50;71.80;;;;;;4997948;28;20489;-77
2023/09/27 09:17:11;;;;;;;5.75;4.55;;;18.60;71.80;;;;;;4997000;28;20084;-77
2023/09/27 09:19:41;;;;;;;5.82;4.55;;;18.70;71.80;;;;;;5013213;28;20053;-77
2023/09/27 09:22:09;;;;;;;5.03;4.18;;;18.70;71.70;;;;;;4996188;28;20049;-78
2023/09/27 09:24:43;;;;;;;5.90;4.65;;;18.70;71.70;;;;;;5014728;28;20092;-78
2023/09/27 09:27:12;;;;;;;5.87;4.57;;;18.80;71.70;;;;;;5014005;28;20128;-77
2023/09/27 09:29:45;;;;;;;6.25;4.60;;;18.90;71.70;;;;;;4996480;28;20037;-77
2023/09/27 09:32:11;;;;;;;5.50;4.30;;;19.00;71.70;;;;;;5013338;28;20348;-77
2023/09/27 09:34:44;;;;;;;5.22;4.50;;;19.10;71.70;;;;;;4980576;28;20026;-77
2023/09/27 09:37:17;;;;;;;5.47;4.53;;;19.10;71.70;;;;;;5013126;28;20018;-77
2023/09/27 09:39:44;;;;;;;5.18;4.15;;;19.20;71.60;;;;;;5013491;28;20041;-77
2023/09/27 09:42:10;;;;;;;5.25;4.35;;;19.30;71.60;;;;;;5012632;28;20026;-76
2023/09/27 09:44:36;;;;;;;6.25;4.60;;;19.40;71.50;;;;;;4980780;28;20036;-78
2023/09/27 09:47:12;;;;;;;5.70;4.68;;;19.50;71.50;;;;;;4996370;28;20092;-78
2023/09/27 09:49:41;;;;;;;5.78;4.07;;;19.60;71.60;;;;;;5012763;28;20052;-78
2023/09/27 09:52:12;;;;;;;5.72;4.47;;;19.60;71.40;;;;;;4964632;28;20029;-81
2023/09/27 09:54:46;;;;;;;4.85;3.97;;;19.80;71.50;;;;;;5013319;28;20113;-82
2023/09/27 09:57:19;;;;;;;5.72;4.65;;;19.80;71.40;;;;;;4982256;28;20034;-82
2023/09/27 09:59:53;;;;;;;4.68;3.65;;;19.90;71.30;;;;;;4997819;28;20030;-77
2023/09/27 10:02:26;;;;;;;5.10;4.00;;;20.00;71.40;;;;;;5013226;28;20038;-76
2023/09/27 10:04:56;;;;;;;5.03;4.20;;;20.10;71.40;;;;;;5012469;28;20046;-75
2023/09/27 10:07:25;;;;;;;4.80;4.30;;;20.10;71.30;;;;;;4996165;28;20091;-76
2023/09/27 10:09:52;;;;;;;4.90;4.22;;;20.20;71.20;;;;;;4996379;28;20025;-76
2023/09/27 10:12:21;;;;;;;4.63;3.78;;;20.30;71.30;;;;;;4980150;28;20026;-75
2023/09/27 10:14:48;;;;;;;4.60;3.80;;;20.30;71.30;;;;;;4980342;28;20181;-76
2023/09/27 10:17:22;;;;;;;4.60;3.47;;;20.40;71.40;;;;;;4996137;28;20121;-76
2023/09/27 10:20:13;;;;;;;5.57;3.95;;;20.50;71.40;;;;;;5013480;28;20092;-76
2023/09/27 10:22:41;;;;;;;4.43;3.42;;;20.50;71.40;;;;;;4995796;28;20108;-77
2023/09/27 10:25:30;;;;;;;4.70;3.42;;;20.60;71.30;;;;;;4996122;28;20041;-75
2023/09/27 10:28:02;;;;;;;5.18;3.53;;;20.60;71.30;;;;;;5012257;28;20034;-76
2023/09/27 10:30:51;;;;;;;4.40;3.45;;;20.70;71.30;;;;;;5013199;28;20034;-75
2023/09/27 10:33:16;;;;;;;4.50;3.45;;;20.80;71.50;;;;;;4969904;28;20038;-75
2023/09/27 10:35:43;;;;;;;3.72;3.15;;;20.90;71.30;;;;;;5016325;28;20080;-75
2023/09/27 10:38:10;;;;;;;4.65;3.45;;;20.90;71.30;;;;;;5016451;28;20467;-76
2023/09/27 10:40:43;;;;;;;4.28;3.28;;;21.00;71.40;;;;;;5000460;28;20026;-77
2023/09/27 10:43:10;;;;;;;4.55;3.72;;;21.00;71.40;;;;;;5000138;28;20026;-75
2023/09/27 10:45:36;;;;;;;5.05;3.38;;;21.10;71.50;;;;;;4999564;28;20037;-76
2023/09/27 10:48:18;;;;;;;4.07;3.38;;;21.20;71.50;;;;;;5016756;28;20066;-75
2023/09/27 10:50:53;;;;;;;4.35;2.90;;;21.20;71.70;;;;;;5015601;28;20030;-76
2023/09/27 10:53:19;;;;;;;4.22;3.15;;;21.30;71.60;;;;;;5016275;28;20433;-75
2023/09/27 10:55:45;;;;;;;3.95;2.97;;;21.30;71.60;;;;;;4983163;28;20041;-77
2023/09/27 10:58:17;;;;;;;3.63;3.13;;;21.40;71.70;;;;;;5017322;28;20113;-74
2023/09/27 11:01:01;;;;;;;4.25;3.10;;;21.40;71.70;;;;;;5016019;28;20030;-76
2023/09/27 11:03:30;;;;;;;3.90;2.65;;;21.50;71.90;;;;;;4999959;28;20038;-75
2023/09/27 11:06:09;;;;;;;3.75;2.83;;;21.50;71.80;;;;;;5015574;28;20061;-75
2023/09/27 11:08:35;;;;;;;3.80;2.75;;;21.60;72.60;;;;;;5016706;28;20038;-75
2023/09/27 11:11:01;;;;;;;4.32;2.83;;;21.60;71.90;;;;;;4999048;28;20469;-76
2023/09/27 11:13:29;;;;;;;4.25;3.28;;;21.70;72.00;;;;;;4982800;28;20112;-75
2023/09/27 11:16:07;;;;;;;4.05;2.75;;;21.70;72.00;;;;;;4983378;28;20482;-80
2023/09/27 11:18:34;;;;;;;3.35;2.78;;;21.70;72.10;;;;;;4984073;28;20030;-79
2023/09/27 11:21:09;;;;;;;3.90;3.05;;;21.80;72.10;;;;;;5014739;28;20091;-79
2023/09/27 11:23:54;;;;;;;3.92;2.63;;;21.80;72.20;;;;;;4998838;28;20045;-79
2023/09/27 11:26:21;;;;;;;4.18;2.85;;;21.80;72.20;;;;;;5015596;28;20037;-78
2023/09/27 11:28:56;;;;;;;3.90;3.20;;;21.90;72.10;;;;;;5015794;28;20049;-79
2023/09/27 11:31:23;;;;;;;4.00;2.85;;;21.90;72.20;;;;;;5015426;28;20494;-78
2023/09/27 11:33:49;;;;;;;3.65;2.80;;;22.00;72.10;;;;;;4999114;28;20034;-80
2023/09/27 11:36:15;;;;;;;3.85;2.90;;;22.00;72.10;;;;;;4998790;28;20045;-77
2023/09/27 11:38:50;;;;;;;3.97;2.75;;;22.00;72.10;;;;;;4998603;28;20379;-77
2023/09/27 11:41:19;;;;;;;3.70;2.85;;;22.10;72.20;;;;;;5016368;28;20104;-76
2023/09/27 11:43:45;;;;;;;3.60;2.85;;;22.10;72.00;;;;;;4997860;28;20038;-82
2023/09/27 11:46:11;;;;;;;3.20;2.45;;;22.20;72.00;;;;;;4998599;28;20040;-78
2023/09/27 11:48:39;;;;;;;3.90;3.00;;;22.20;72.00;;;;;;4998513;28;20057;-76
2023/09/27 11:51:05;;;;;;;3.38;2.58;;;22.20;72.00;;;;;;5015632;28;20057;-77
2023/09/27 11:53:31;;;;;;;3.58;2.45;;;22.30;72.00;;;;;;4999380;28;20471;-76
2023/09/27 11:55:59;;;;;;;3.05;2.45;;;22.30;72.10;;;;;;5014917;28;20471;-76
2023/09/27 11:58:26;;;;;;;3.33;2.70;;;22.30;72.00;;;;;;5015066;28;20451;-76
2023/09/27 12:00:52;;;;;;;3.83;2.78;;;22.30;72.00;;;;;;4982332;28;20030;-76
2023/09/27 12:03:17;;;;;;;4.20;2.80;;;22.40;72.00;;;;;;4982548;28;20382;-76
2023/09/27 12:05:44;;;;;;;3.40;2.35;;;22.40;71.90;;;;;;4998237;28;20046;-76
2023/09/27 12:08:10;;;;;;;3.47;2.70;;;22.40;71.80;;;;;;4998324;28;20061;-76
2023/09/27 12:10:36;;;;;;;3.97;3.00;;;22.50;71.90;;;;;;4982432;28;20035;-76
2023/09/27 12:13:02;;;;;;;4.38;3.22;;;22.50;71.90;;;;;;4966067;28;20073;-76
2023/09/27 12:15:28;;;;;;;3.50;2.47;;;22.50;71.90;;;;;;4998693;28;20125;-76
2023/09/27 12:17:53;;;;;;;4.15;2.85;;;22.50;71.70;;;;;;4998727;28;20113;-76
2023/09/27 12:20:19;;;;;;;3.97;2.97;;;22.60;71.70;;;;;;4981896;28;20038;-76
2023/09/27 12:22:45;;;;;;;3.60;2.63;;;22.60;71.70;;;;;;4982416;28;20042;-77
2023/09/27 12:25:11;;;;;;;3.80;2.70;;;22.60;71.60;;;;;;5015095;28;20069;-76
2023/09/27 12:27:37;;;;;;;4.20;2.75;;;22.70;71.60;;;;;;5015293;28;20030;-76
2023/09/27 12:30:05;;;;;;;3.00;2.47;;;22.70;71.60;;;;;;4997844;28;20033;-76
2023/09/27 12:32:30;;;;;;;3.88;2.65;;;22.70;71.60;;;;;;5014177;28;20060;-76
2023/09/27 12:34:56;;;;;;;3.33;2.60;;;22.80;71.50;;;;;;4981292;28;20069;-76
2023/09/27 12:37:22;;;;;;;3.53;2.53;;;22.70;71.30;;;;;;4997766;28;20030;-76
2023/09/27 12:39:47;;;;;;;3.75;2.80;;;22.80;71.30;;;;;;4981485;28;20030;-76
2023/09/27 12:42:13;;;;;;;3.85;2.70;;;22.80;71.30;;;;;;4997965;28;20100;-76
2023/09/27 12:44:39;;;;;;;3.47;2.70;;;22.80;71.30;;;;;;5015103;28;20025;-76
2023/09/27 12:47:05;;;;;;;3.22;2.50;;;22.80;71.30;;;;;;4997528;28;20034;-77
2023/09/27 12:49:31;;;;;;;3.55;2.80;;;22.80;71.30;;;;;;5013247;28;20107;-76